Terminal Aerodrome Forecast
Issued by NWS Wilmington, OH

Home | Current Version | Previous Version | Text Only | Print | Product List | Glossary On
Versions: 1 2 3 4 5 6 7 8 9 10 11 12 13 14 15 16 17 18 19 20 21 22 23 24 25 26 27 28 29 30 31 32
000
FTUS41 KILN 052059 AAB
TAFCVG
TAF AMD
KCVG 052059Z 0521/0624 29006KT P6SM VCSH FEW019 BKN060 BKN080
      TEMPO 0521/0522 6SM -SHRA BR OVC015
     FM060100 34008KT P6SM SCT040
     FM061400 34012KT P6SM SCT050=

USA.gov is the U.S. government's official web portal to all federal, state and local government web resources and services.